world map with FMM marked

FMM - Airport

This information may not be accurate or current and is not valid for navigation or flight planning. No warranty of fitness for any purpose is made or implied.

flag of Bavariaflag of Germany

Donate via PayPal

Additional information is available on the NEW Great Circle Mapper

Location
City:  Memmingen, Bavaria, Germany
Near (Alt.):Allgäu
Name:Allgäu
ICAO / IATA:EDJA / FMM

Details
Type:Airport (Flugplatz, Airfield)
Latitude:47°59'20"N (47.988758)
Longitude:10°14'22"E (10.239500)
Datum:other
Elevation:2077 ft (633 m)
Runways:1
Longest:9780 × 98 ft (2981 × 30 m)

Time
Timezone:UTC+1 (DST+4)
Local Time:

Weather
METAR:EDJA  041350Z 08006KT 9999 FEW011 M01/M03 Q1026

Related Locations
Nearby:
Farthest:CHT: 12003 mi / 19316 km
Waitangi [Tuuta], CIT, NZ

Find:

   beyond  
but within

Other Information
Maps:
Links:
Sources:

  


 


Great Circle Mapper   Great Circle Mapper
Great Circle Mapper FAQ   Great Circle Mapper FAQ
  Karl's Home Page
KLS²   KLS² Home
   GC on Facebook
Airlines of the World   Airlines of the World
Donate via PayPal


Copyright © 2004-2019, Karl L. Swartz. All rights reserved.
All trademarks mentioned herein belong to their respective owners.

Please see credits for attribution and copyright information.

Karl Swartz <karl@kls2.com>
  Powered by FreeBSD
Valid HTML 4.01!
Labeled with ICRA
hCard Microformat
Geo Microformat